Time;durP1;ratioP1;P1;durP2;ratioP2;P2;SDS_P1;SDS_P2;PMS_P1;PMS_P2;Temp;Humidity;BMP_temperature;BMP_pressure;BME280_temperature;BME280_humidity;BME280_pressure;Samples;Min_cycle;Max_cycle;Signal;HPM_P1;HPM_P2
2022/04/05 00:00:01;;;;;;;29.50;6.55;;;;;;;8.83;53.84;100582.31;5017261;28;20053;-58
2022/04/05 00:02:33;;;;;;;28.08;6.47;;;;;;;8.95;53.50;100576.19;5017268;28;20141;-54
2022/04/05 00:05:04;;;;;;;19.70;6.13;;;;;;;9.06;52.88;100559.63;5017063;28;20085;-58
2022/04/05 00:07:35;;;;;;;20.77;6.47;;;;;;;9.20;52.86;100571.69;5017254;28;20092;-56
2022/04/05 00:10:06;;;;;;;22.60;6.25;;;;;;;9.17;51.97;100561.28;5017170;28;20104;-58
2022/04/05 00:12:37;;;;;;;18.15;5.72;;;;;;;8.68;52.08;100473.81;5030743;28;20117;-58
2022/04/05 00:15:09;;;;;;;18.88;5.55;;;;;;;9.26;52.06;100561.22;5029055;28;20325;-59
2022/04/05 00:17:41;;;;;;;25.75;7.07;;;;;;;9.35;51.94;100561.16;5006195;28;20082;-59
2022/04/05 00:20:12;;;;;;;25.83;6.22;;;;;;;9.35;50.86;100561.16;5021212;28;20109;-60
2022/04/05 00:22:43;;;;;;;29.45;6.95;;;;;;;9.43;51.07;100548.94;5023732;28;20072;-60
2022/04/05 00:25:13;;;;;;;18.63;6.05;;;;;;;9.56;50.84;100543.63;5027003;28;20121;-60
2022/04/05 00:27:45;;;;;;;21.42;6.30;;;;;;;9.58;50.29;100536.66;5027178;28;20054;-58
2022/04/05 00:30:16;;;;;;;34.85;7.22;;;;;;;9.63;50.25;100534.88;5027389;28;20056;-58
2022/04/05 00:32:48;;;;;;;22.33;6.22;;;;;;;9.78;49.82;100523.44;5026522;28;20049;-57
2022/04/05 00:35:19;;;;;;;18.48;6.80;;;;;;;9.87;49.57;100537.28;5026318;28;20667;-58
2022/04/05 00:37:50;;;;;;;26.65;7.20;;;;;;;9.73;48.98;100500.00;5027152;28;20050;-58
2022/04/05 00:40:21;;;;;;;20.65;6.43;;;;;;;10.00;48.66;100508.44;5026657;28;20065;-58
2022/04/05 00:42:51;;;;;;;16.80;6.22;;;;;;;10.02;48.78;100491.03;5026496;28;20121;-59
2022/04/05 00:45:22;;;;;;;21.08;6.60;;;;;;;9.96;48.40;100511.97;5025304;28;20057;-57
2022/04/05 00:47:54;;;;;;;22.77;6.63;;;;;;;10.01;48.27;100520.63;5026830;28;20053;-58
2022/04/05 00:50:25;;;;;;;18.98;6.60;;;;;;;9.94;47.95;100491.97;5017997;28;20057;-57
2022/04/05 00:52:56;;;;;;;23.45;6.97;;;;;;;10.00;47.95;100504.09;5026609;28;20042;-58
2022/04/05 00:55:27;;;;;;;28.77;7.60;;;;;;;9.93;47.69;100492.88;5026943;28;20054;-57
2022/04/05 00:57:59;;;;;;;18.98;6.82;;;;;;;9.81;47.66;100456.44;5025303;28;20088;-57
2022/04/05 01:00:30;;;;;;;20.33;6.50;;;;;;;9.84;47.92;100481.66;5026179;28;20053;-57
2022/04/05 01:03:03;;;;;;;17.83;6.60;;;;;;;9.83;48.20;100483.38;5026486;28;20056;-57
2022/04/05 01:05:36;;;;;;;23.23;5.97;;;;;;;9.86;47.93;100475.53;5026603;28;20297;-58
2022/04/05 01:08:09;;;;;;;22.83;6.70;;;;;;;9.90;47.58;100481.56;5025863;28;20236;-57
2022/04/05 01:10:41;;;;;;;22.35;6.93;;;;;;;9.97;47.46;100466.72;5025516;28;20447;-58
2022/04/05 01:13:11;;;;;;;26.88;6.93;;;;;;;9.90;47.25;100450.25;5025824;28;20271;-57
2022/04/05 01:15:42;;;;;;;26.20;6.70;;;;;;;10.05;47.08;100465.75;5025950;28;20073;-59
2022/04/05 01:18:15;;;;;;;20.27;6.88;;;;;;;10.04;47.09;100463.16;5026147;28;20156;-58
2022/04/05 01:20:46;;;;;;;25.40;6.68;;;;;;;10.06;46.97;100453.53;5026250;28;20053;-57
2022/04/05 01:23:23;;;;;;;26.45;6.53;;;;;;;10.06;46.40;100435.28;5026077;28;20064;-58
2022/04/05 01:25:56;;;;;;;20.95;6.95;;;;;;;10.02;46.37;100428.38;5025885;28;20417;-58
2022/04/05 01:28:27;;;;;;;25.10;6.90;;;;;;;10.05;45.91;100444.84;5026139;28;20100;-58
2022/04/05 01:30:57;;;;;;;24.33;7.07;;;;;;;10.10;46.03;100431.75;5025696;28;20243;-60
2022/04/05 01:33:28;;;;;;;19.67;5.53;;;;;;;10.13;45.88;100436.94;5025756;28;20054;-57
2022/04/05 01:35:59;;;;;;;22.58;7.05;;;;;;;9.68;45.17;100346.13;5024929;28;20065;-58
2022/04/05 01:38:29;;;;;;;20.23;6.53;;;;;;;10.05;44.61;100402.22;5025795;28;20061;-57
2022/04/05 01:41:02;;;;;;;27.15;7.22;;;;;;;10.29;44.96;100443.75;5025539;28;20071;-58
2022/04/05 01:43:32;;;;;;;24.13;6.35;;;;;;;10.34;44.73;100435.88;5025880;28;20046;-57
2022/04/05 01:46:03;;;;;;;20.00;6.53;;;;;;;10.34;44.70;100434.09;5025408;28;20096;-57
2022/04/05 01:48:33;;;;;;;23.63;6.90;;;;;;;10.33;44.42;100429.78;5024428;28;20061;-57
2022/04/05 01:51:04;;;;;;;20.70;6.82;;;;;;;10.33;44.21;100429.78;5025274;28;20053;-59
2022/04/05 01:53:35;;;;;;;21.77;6.53;;;;;;;10.36;43.86;100434.09;5025775;28;20053;-57
2022/04/05 01:56:07;;;;;;;16.25;6.32;;;;;;;10.44;43.77;100426.16;5025753;28;20085;-59
2022/04/05 01:58:38;;;;;;;19.02;6.40;;;;;;;10.49;43.26;100434.81;5024738;28;20054;-57
2022/04/05 02:01:09;;;;;;;16.42;6.15;;;;;;;10.62;42.88;100436.34;5023544;28;20049;-58
2022/04/05 02:03:40;;;;;;;20.25;7.10;;;;;;;10.64;42.80;100434.59;5025380;28;20056;-57
2022/04/05 02:06:11;;;;;;;17.15;6.30;;;;;;;10.64;42.89;100429.34;5024887;28;20299;-56
2022/04/05 02:08:41;;;;;;;23.92;6.63;;;;;;;10.65;42.72;100423.22;5024868;28;20112;-56
2022/04/05 02:11:13;;;;;;;26.75;6.75;;;;;;;10.73;42.85;100420.50;5025126;28;20053;-54
2022/04/05 02:13:44;;;;;;;20.52;7.10;;;;;;;10.84;42.25;100412.53;5024753;28;20053;-56
2022/04/05 02:16:14;;;;;;;24.95;7.05;;;;;;;10.89;42.16;100413.31;5025069;28;20761;-57
2022/04/05 02:18:45;;;;;;;20.67;6.38;;;;;;;10.90;41.69;100402.81;5024893;28;20116;-57
2022/04/05 02:21:16;;;;;;;19.67;6.40;;;;;;;10.90;42.05;100394.13;5024926;28;20128;-58
2022/04/05 02:23:46;;;;;;;24.48;6.70;;;;;;;10.96;41.81;100405.34;5024991;28;20108;-57
2022/04/05 02:26:19;;;;;;;24.85;6.63;;;;;;;10.78;41.71;100385.59;5024934;28;20116;-56
2022/04/05 02:28:50;;;;;;;16.95;6.50;;;;;;;10.97;41.54;100401.00;5025137;28;20054;-58
2022/04/05 02:31:21;;;;;;;22.25;6.72;;;;;;;11.01;41.83;100392.22;5025519;28;20117;-56
2022/04/05 02:33:52;;;;;;;17.63;6.35;;;;;;;11.14;41.44;100385.88;5024614;28;20057;-58
2022/04/05 02:36:23;;;;;;;29.38;6.47;;;;;;;11.13;41.01;100381.56;5024819;28;20391;-54
2022/04/05 02:38:53;;;;;;;19.23;6.60;;;;;;;11.12;40.81;100374.59;5024709;28;20283;-56
2022/04/05 02:41:25;;;;;;;21.83;6.95;;;;;;;11.03;40.81;100372.13;5024581;28;20057;-54
2022/04/05 02:43:56;;;;;;;17.85;6.55;;;;;;;11.02;40.80;100373.00;5024650;28;20400;-55
2022/04/05 02:46:27;;;;;;;19.17;6.72;;;;;;;11.07;40.86;100372.94;5023879;28;20062;-54
2022/04/05 02:48:57;;;;;;;16.90;6.85;;;;;;;11.00;40.50;100364.31;5024232;28;20045;-56
2022/04/05 02:51:28;;;;;;;27.25;7.45;;;;;;;11.05;40.64;100357.25;5024119;28;20056;-54
2022/04/05 02:53:59;;;;;;;24.85;6.93;;;;;;;11.01;40.55;100360.84;5024258;28;20083;-56
2022/04/05 02:56:31;;;;;;;19.05;6.72;;;;;;;11.04;40.70;100360.78;5023068;28;20081;-55
2022/04/05 02:59:02;;;;;;;17.27;6.43;;;;;;;11.06;40.65;100364.25;5024321;28;20364;-54
2022/04/05 03:01:32;;;;;;;19.23;6.47;;;;;;;11.15;40.73;100347.50;5024176;28;20121;-58
2022/04/05 03:04:05;;;;;;;25.83;7.40;;;;;;;11.26;40.25;100349.94;5024183;28;20061;-57
2022/04/05 03:06:36;;;;;;;24.35;6.82;;;;;;;11.33;40.30;100367.25;5024053;28;20091;-56
2022/04/05 03:09:07;;;;;;;27.95;7.82;;;;;;;11.24;40.36;100347.38;5024075;28;20256;-56
2022/04/05 03:11:39;;;;;;;25.65;7.95;;;;;;;11.17;40.41;100357.06;5024313;28;20103;-56
2022/04/05 03:14:10;;;;;;;21.95;6.93;;;;;;;11.05;40.70;100346.81;5024348;28;20076;-56
2022/04/05 03:16:41;;;;;;;33.10;8.45;;;;;;;11.00;40.74;100343.41;5023936;28;20132;-57
2022/04/05 03:19:12;;;;;;;27.17;7.90;;;;;;;10.78;41.17;100346.41;5023404;28;20080;-57
2022/04/05 03:21:42;;;;;;;28.50;7.13;;;;;;;10.59;41.55;100334.50;5023749;28;20259;-56
2022/04/05 03:24:13;;;;;;;34.03;8.73;;;;;;;10.62;40.92;100352.72;5023498;28;20255;-57
2022/04/05 03:26:45;;;;;;;38.63;7.97;;;;;;;10.77;40.69;100349.88;5023725;28;20314;-57
2022/04/05 03:29:16;;;;;;;24.58;7.07;;;;;;;10.93;39.53;100344.41;5023718;28;20071;-56
2022/04/05 03:31:46;;;;;;;23.58;7.75;;;;;;;11.01;39.90;100339.94;5024098;28;20050;-58
2022/04/05 03:34:17;;;;;;;17.73;6.65;;;;;;;11.11;39.11;100346.72;5023821;28;20053;-56
2022/04/05 03:36:47;;;;;;;18.45;7.47;;;;;;;11.07;39.03;100328.50;5023807;28;20108;-56
2022/04/05 03:39:18;;;;;;;41.13;7.70;;;;;;;11.18;38.73;100322.19;5023929;28;20045;-58
2022/04/05 03:41:51;;;;;;;26.58;7.97;;;;;;;11.33;37.91;100341.09;5023967;28;20052;-56
2022/04/05 03:44:22;;;;;;;13.32;6.45;;;;;;;11.27;37.83;100309.81;5023941;28;20049;-56
2022/04/05 03:46:52;;;;;;;18.38;6.85;;;;;;;11.44;37.51;100326.06;5023782;28;20332;-58
2022/04/05 03:49:23;;;;;;;17.95;6.63;;;;;;;11.49;37.99;100326.84;5023873;28;20235;-58
2022/04/05 03:51:54;;;;;;;25.25;6.97;;;;;;;11.54;37.85;100316.28;5023640;28;20087;-56
2022/04/05 03:54:24;;;;;;;18.52;6.78;;;;;;;11.54;37.93;100319.75;5023073;28;20073;-59
2022/04/05 03:56:57;;;;;;;17.05;7.10;;;;;;;11.57;37.49;100304.00;5024053;28;20359;-60
2022/04/05 03:59:28;;;;;;;35.17;7.25;;;;;;;11.55;37.09;100305.78;5026418;28;20088;-60
2022/04/05 04:01:59;;;;;;;23.60;7.50;;;;;;;11.52;36.33;100305.84;5027507;28;20080;-57
2022/04/05 04:04:30;;;;;;;40.95;8.50;;;;;;;11.48;36.45;100309.41;5027534;28;20589;-60
2022/04/05 04:07:00;;;;;;;22.10;7.20;;;;;;;11.48;36.67;100304.16;5027595;28;20076;-56
2022/04/05 04:09:31;;;;;;;21.98;7.15;;;;;;;11.46;36.45;100305.97;5027367;28;20081;-58
2022/04/05 04:12:04;;;;;;;23.98;7.68;;;;;;;11.37;35.69;100287.84;5027199;28;20405;-57
2022/04/05 04:14:35;;;;;;;19.92;7.72;;;;;;;11.36;35.55;100309.66;5027192;28;20041;-57
2022/04/05 04:17:06;;;;;;;20.55;7.47;;;;;;;11.34;36.10;100308.81;5017729;28;20394;-59
2022/04/05 04:19:37;;;;;;;15.95;7.57;;;;;;;11.31;35.59;100301.03;5027110;28;20095;-59
2022/04/05 04:22:07;;;;;;;23.83;7.90;;;;;;;11.33;35.11;100304.47;5027427;28;20065;-55
2022/04/05 04:24:38;;;;;;;19.90;7.20;;;;;;;11.27;35.45;100310.69;5026086;28;20299;-56
2022/04/05 04:27:11;;;;;;;33.50;7.93;;;;;;;11.29;35.43;100303.69;5026937;28;20141;-58
2022/04/05 04:29:42;;;;;;;21.38;6.75;;;;;;;11.22;35.48;100291.59;5026952;28;20045;-57
2022/04/05 04:32:12;;;;;;;17.08;6.57;;;;;;;11.22;35.63;100309.91;5027154;28;20258;-57
2022/04/05 04:34:43;;;;;;;20.50;7.03;;;;;;;11.27;35.80;100320.28;5027227;28;20489;-55
2022/04/05 04:37:14;;;;;;;17.90;7.30;;;;;;;11.23;35.77;100309.00;5027069;28;20057;-57
2022/04/05 04:39:45;;;;;;;19.13;7.78;;;;;;;11.22;35.72;100305.53;5026723;28;20053;-54
2022/04/05 04:42:17;;;;;;;40.78;8.02;;;;;;;11.15;36.19;100301.28;5026657;28;20121;-56
2022/04/05 04:44:48;;;;;;;17.38;7.00;;;;;;;11.16;35.91;100303.03;5026690;28;20054;-57
2022/04/05 04:47:19;;;;;;;16.00;6.40;;;;;;;11.15;35.74;100306.53;5026680;28;20265;-57
2022/04/05 04:49:49;;;;;;;21.13;6.38;;;;;;;11.09;35.73;100285.72;5026874;28;20060;-57
2022/04/05 04:52:24;;;;;;;14.15;5.78;;;;;;;11.08;35.69;100289.22;5026967;28;20053;-56
2022/04/05 04:54:55;;;;;;;20.50;6.75;;;;;;;10.99;35.75;100278.94;5026411;28;20116;-57
2022/04/05 04:57:27;;;;;;;25.60;6.78;;;;;;;10.92;35.70;100272.09;5026787;28;20053;-57
2022/04/05 04:59:58;;;;;;;33.40;6.90;;;;;;;10.87;35.52;100271.31;5026949;28;20056;-57
2022/04/05 05:02:29;;;;;;;23.95;7.00;;;;;;;10.80;35.91;100284.47;5026480;28;20060;-59
2022/04/05 05:04:59;;;;;;;32.78;6.72;;;;;;;10.76;35.92;100276.75;5026596;28;20061;-54
2022/04/05 05:07:31;;;;;;;34.17;6.78;;;;;;;10.74;36.29;100268.06;5026228;28;20108;-56
2022/04/05 05:10:01;;;;;;;18.67;6.20;;;;;;;10.35;36.29;100203.34;5026230;28;20068;-56
2022/04/05 05:12:33;;;;;;;25.83;6.60;;;;;;;10.66;36.14;100260.34;5026304;28;20061;-57
2022/04/05 05:15:05;;;;;;;20.63;6.78;;;;;;;10.67;36.18;100267.28;5026460;28;20164;-56
2022/04/05 05:17:36;;;;;;;20.23;6.15;;;;;;;10.69;36.03;100270.75;5026382;28;20057;-57
2022/04/05 05:20:08;;;;;;;18.88;5.53;;;;;;;10.29;35.97;100193.03;5016127;28;20304;-57
2022/04/05 05:22:39;;;;;;;18.58;6.63;;;;;;;10.62;35.94;100258.66;5025896;28;20092;-58
2022/04/05 05:25:10;;;;;;;19.52;6.22;;;;;;;10.64;35.77;100262.13;5025645;28;20085;-55
2022/04/05 05:27:43;;;;;;;20.20;5.93;;;;;;;10.60;35.24;100249.97;5025916;28;20287;-54
2022/04/05 05:30:15;;;;;;;24.50;5.78;;;;;;;10.44;35.08;100227.63;5025943;28;20121;-56
2022/04/05 05:32:47;;;;;;;14.70;5.80;;;;;;;10.56;35.43;100264.00;5015941;28;20766;-58
2022/04/05 05:35:18;;;;;;;25.35;5.88;;;;;;;10.62;35.07;100252.59;5025616;28;20387;-55
2022/04/05 05:37:50;;;;;;;18.23;5.63;;;;;;;10.63;35.20;100249.91;5025461;28;20113;-56
2022/04/05 05:40:21;;;;;;;20.02;5.85;;;;;;;10.56;34.81;100245.72;5025794;28;20077;-55
2022/04/05 05:42:55;;;;;;;24.27;5.88;;;;;;;10.51;35.22;100251.00;5025457;28;20344;-54
2022/04/05 05:45:26;;;;;;;21.83;6.03;;;;;;;10.53;34.85;100243.13;5025808;28;20122;-57
2022/04/05 05:47:57;;;;;;;21.70;6.10;;;;;;;10.53;34.48;100253.56;5025883;28;20362;-57
2022/04/05 05:50:29;;;;;;;28.48;5.30;;;;;;;10.41;34.82;100248.53;5025754;28;20398;-58
2022/04/05 05:53:00;;;;;;;20.77;5.18;;;;;;;10.35;35.16;100245.16;5025715;28;20265;-54
2022/04/05 05:55:31;;;;;;;24.80;6.30;;;;;;;10.30;34.96;100246.97;5025257;28;20052;-57
2022/04/05 05:58:04;;;;;;;20.90;5.72;;;;;;;10.25;34.84;100243.53;5025658;28;20117;-57
2022/04/05 06:00:35;;;;;;;24.38;5.65;;;;;;;10.31;34.86;100248.72;5025021;28;20053;-58
2022/04/05 06:03:05;;;;;;;16.10;5.60;;;;;;;10.31;34.62;100253.94;5025248;28;20058;-59
2022/04/05 06:05:36;;;;;;;15.52;5.90;;;;;;;10.31;34.54;100248.72;5025252;28;20316;-57
2022/04/05 06:08:08;;;;;;;18.83;5.45;;;;;;;10.27;35.36;100247.00;5025089;28;20050;-57
2022/04/05 06:10:39;;;;;;;21.98;5.93;;;;;;;10.19;35.33;100243.66;5025161;28;20045;-57
2022/04/05 06:13:12;;;;;;;25.40;6.78;;;;;;;10.12;35.57;100257.66;5025053;28;20146;-57
2022/04/05 06:15:43;;;;;;;19.33;5.93;;;;;;;10.12;35.36;100248.09;5024408;28;20123;-57
2022/04/05 06:18:13;;;;;;;19.83;6.25;;;;;;;10.04;34.89;100229.06;5024051;28;20097;-57
2022/04/05 06:20:44;;;;;;;20.13;6.38;;;;;;;10.09;35.48;100257.72;5022630;28;20422;-57
2022/04/05 06:23:15;;;;;;;29.27;6.40;;;;;;;10.04;35.18;100254.31;5024181;28;20057;-56
2022/04/05 06:25:46;;;;;;;14.80;5.20;;;;;;;10.05;35.12;100246.44;5025160;28;20057;-54
2022/04/05 06:28:18;;;;;;;16.42;6.18;;;;;;;10.00;34.82;100247.41;5025237;28;20058;-56
2022/04/05 06:30:49;;;;;;;14.98;5.60;;;;;;;10.00;34.41;100236.97;5024795;28;20069;-55
2022/04/05 06:33:21;;;;;;;30.88;7.35;;;;;;;10.03;34.56;100236.91;5015483;28;20585;-57
2022/04/05 06:35:54;;;;;;;17.20;5.75;;;;;;;10.12;34.07;100247.22;5025091;28;20056;-57
2022/04/05 06:38:25;;;;;;;23.63;6.22;;;;;;;10.09;34.34;100221.19;5024483;28;20481;-57
2022/04/05 06:41:02;;;;;;;30.13;6.60;;;;;;;10.13;34.32;100233.28;5025092;28;20057;-58
2022/04/05 06:43:34;;;;;;;31.35;6.15;;;;;;;10.10;34.48;100242.00;5024639;28;20057;-57
2022/04/05 06:46:05;;;;;;;17.75;6.07;;;;;;;10.05;34.28;100235.16;5024491;28;20060;-59
2022/04/05 06:48:36;;;;;;;17.10;5.05;;;;;;;10.07;34.25;100218.56;5024636;28;20313;-57
2022/04/05 06:51:07;;;;;;;16.95;5.28;;;;;;;9.99;34.97;100241.31;5024457;28;20108;-59
2022/04/05 06:53:43;;;;;;;17.77;5.13;;;;;;;9.94;35.13;100244.00;5024449;28;20116;-57
2022/04/05 06:56:14;;;;;;;21.50;5.15;;;;;;;9.87;35.24;100226.69;5024182;28;20090;-58
2022/04/05 06:58:46;;;;;;;16.85;5.45;;;;;;;9.79;35.70;100236.38;5024346;28;20099;-57
2022/04/05 07:01:17;;;;;;;28.58;5.82;;;;;;;9.69;36.00;100227.81;5024109;28;20108;-57
2022/04/05 07:03:48;;;;;;;34.05;6.35;;;;;;;9.57;36.30;100237.56;5024060;28;20085;-57
2022/04/05 07:06:19;;;;;;;18.52;4.95;;;;;;;9.44;36.67;100231.63;5024133;28;20046;-57
2022/04/05 07:08:50;;;;;;;28.52;5.45;;;;;;;9.37;36.89;100225.63;5023995;28;20603;-57
2022/04/05 07:11:21;;;;;;;17.52;5.10;;;;;;;9.32;37.21;100227.41;5024272;28;20092;-58
2022/04/05 07:13:53;;;;;;;23.30;5.60;;;;;;;9.26;37.57;100233.56;5023791;28;20053;-57
2022/04/05 07:16:24;;;;;;;19.17;5.18;;;;;;;9.18;37.87;100226.69;5024040;28;20352;-57
2022/04/05 07:18:55;;;;;;;25.70;5.70;;;;;;;9.11;37.80;100227.66;5016074;28;20085;-57
2022/04/05 07:21:26;;;;;;;32.47;6.40;;;;;;;8.87;38.04;100203.59;5024275;28;20061;-57
2022/04/05 07:24:01;;;;;;;23.08;5.47;;;;;;;8.93;37.91;100223.50;5024145;28;20333;-57
2022/04/05 07:26:32;;;;;;;23.10;4.85;;;;;;;8.88;37.73;100218.31;5023840;28;20344;-57
2022/04/05 07:29:05;;;;;;;18.00;5.68;;;;;;;8.80;37.80;100223.63;5024051;28;20053;-57
2022/04/05 07:31:35;;;;;;;21.33;5.20;;;;;;;8.77;38.28;100233.22;5024352;28;20053;-54
2022/04/05 07:34:06;;;;;;;18.42;5.15;;;;;;;8.66;38.89;100225.47;5028357;28;20061;-54
2022/04/05 07:36:37;;;;;;;16.33;5.00;;;;;;;8.52;39.20;100225.63;5027946;28;20371;-57
2022/04/05 07:39:08;;;;;;;28.15;5.43;;;;;;;8.45;38.98;100210.06;5027987;28;20437;-58
2022/04/05 07:41:39;;;;;;;21.50;5.20;;;;;;;8.37;39.69;100223.13;5027900;28;20053;-57
2022/04/05 07:44:11;;;;;;;22.67;6.13;;;;;;;8.30;39.60;100205.81;5027987;28;20124;-58
2022/04/05 07:46:42;;;;;;;22.45;5.32;;;;;;;8.17;39.18;100205.91;5027884;28;20049;-57
2022/04/05 07:49:13;;;;;;;31.13;6.60;;;;;;;8.13;39.87;100217.19;5026818;28;20053;-57
2022/04/05 07:51:44;;;;;;;18.35;5.03;;;;;;;7.97;39.96;100218.19;5027460;28;20065;-57
2022/04/05 07:54:14;;;;;;;16.33;5.43;;;;;;;7.84;40.92;100226.94;5027887;28;20100;-57
2022/04/05 07:56:45;;;;;;;13.48;4.97;;;;;;;7.75;40.81;100213.13;5027882;28;20454;-56
2022/04/05 07:59:17;;;;;;;21.70;5.80;;;;;;;7.72;40.50;100215.75;5027851;28;20392;-56
2022/04/05 08:01:49;;;;;;;20.10;5.50;;;;;;;7.65;40.74;100206.25;5027431;28;20069;-56
2022/04/05 08:04:31;;;;;;;23.83;5.15;;;;;;;7.61;40.85;100203.66;5027354;28;20061;-58
2022/04/05 08:07:01;;;;;;;22.63;5.82;;;;;;;7.37;41.37;100183.88;5026994;28;20064;-57
2022/04/05 08:09:32;;;;;;;25.63;5.53;;;;;;;7.43;41.41;100220.22;5027421;28;20230;-57
2022/04/05 08:12:03;;;;;;;23.38;5.97;;;;;;;7.28;42.25;100203.81;5027338;28;20424;-57
2022/04/05 08:14:35;;;;;;;48.00;6.18;;;;;;;7.04;43.42;100193.47;5027217;28;20057;-56
2022/04/05 08:17:06;;;;;;;25.33;6.70;;;;;;;7.04;43.79;100220.34;5027460;28;20076;-56
2022/04/05 08:19:37;;;;;;;52.90;6.28;;;;;;;6.93;43.82;100223.84;5027240;28;20046;-55
2022/04/05 08:22:08;;;;;;;33.67;6.70;;;;;;;6.78;44.45;100214.34;5027068;28;20233;-57
2022/04/05 08:24:39;;;;;;;23.65;6.28;;;;;;;6.68;44.43;100229.06;5026427;28;20064;-57
2022/04/05 08:27:09;;;;;;;21.65;5.60;;;;;;;6.52;44.61;100209.19;5027428;28;20104;-57
2022/04/05 08:29:41;;;;;;;27.70;6.20;;;;;;;6.38;45.49;100210.03;5027040;28;20084;-56
2022/04/05 08:32:12;;;;;;;58.58;7.35;;;;;;;6.20;46.13;100216.09;5026741;28;20394;-55
2022/04/05 08:34:45;;;;;;;21.60;5.82;;;;;;;6.11;46.35;100204.84;5026891;28;20089;-56
2022/04/05 08:37:15;;;;;;;19.25;5.35;;;;;;;6.01;46.25;100210.03;5026652;28;20267;-55
2022/04/05 08:39:46;;;;;;;18.55;5.75;;;;;;;5.88;46.42;100197.88;5026381;28;20046;-56
2022/04/05 08:42:17;;;;;;;20.95;6.57;;;;;;;5.77;46.42;100186.63;5026522;28;20343;-55
2022/04/05 08:44:51;;;;;;;23.60;7.47;;;;;;;5.87;46.15;100201.34;5026141;28;20053;-56
2022/04/05 08:47:24;;;;;;;21.33;7.78;;;;;;;5.81;46.30;100201.31;5026907;28;20279;-57
2022/04/05 08:49:56;;;;;;;20.33;6.55;;;;;;;5.70;46.72;100203.03;5025920;28;20057;-55
2022/04/05 08:52:28;;;;;;;28.35;6.00;;;;;;;5.67;46.93;100197.84;5026816;28;20067;-57
2022/04/05 08:54:58;;;;;;;27.55;5.40;;;;;;;5.59;47.45;100196.09;5026484;28;20053;-55
2022/04/05 08:57:29;;;;;;;19.48;4.82;;;;;;;5.52;47.28;100199.53;5025083;28;20116;-56
2022/04/05 09:00:02;;;;;;;14.07;4.65;;;;;;;5.41;46.97;100181.31;5025384;28;20092;-57
2022/04/05 09:02:33;;;;;;;24.08;4.80;;;;;;;5.41;46.84;100190.84;5026465;28;20107;-58
2022/04/05 09:05:08;;;;;;;13.40;4.22;;;;;;;5.38;47.28;100193.41;5025247;28;20092;-57
2022/04/05 09:07:40;;;;;;;43.45;5.60;;;;;;;5.32;47.26;100190.81;5026688;28;20089;-59
2022/04/05 09:10:14;;;;;;;17.58;4.00;;;;;;;5.27;47.01;100177.00;5026016;28;20089;-58
2022/04/05 09:12:47;;;;;;;22.38;4.95;;;;;;;5.28;47.55;100178.72;5025016;28;20053;-57
2022/04/05 09:15:28;;;;;;;18.05;4.63;;;;;;;5.21;47.55;100184.72;5026218;28;20133;-58
2022/04/05 09:17:59;;;;;;;18.25;4.10;;;;;;;5.09;47.48;100168.28;5026882;28;20120;-54
2022/04/05 09:20:30;;;;;;;12.98;3.67;;;;;;;5.03;46.90;100160.47;5026269;28;20125;-56
2022/04/05 09:23:02;;;;;;;15.90;3.85;;;;;;;4.72;46.43;100116.31;5026344;28;20075;-55
2022/04/05 09:25:32;;;;;;;15.10;4.65;;;;;;;5.05;47.13;100171.72;5025836;28;20053;-54
2022/04/05 09:28:05;;;;;;;19.48;6.20;;;;;;;5.08;46.88;100187.25;5025524;28;20226;-58
2022/04/05 09:30:37;;;;;;;22.38;6.72;;;;;;;5.08;47.69;100176.03;5026100;28;20041;-57
2022/04/05 09:33:14;;;;;;;32.40;11.88;;;;;;;5.00;48.23;100183.78;5025516;28;20065;-52
2022/04/05 09:35:45;;;;;;;17.63;6.43;;;;;;;4.87;49.24;100181.97;5025959;28;20377;-54
2022/04/05 09:38:21;;;;;;;21.67;6.13;;;;;;;4.74;50.01;100179.31;5025705;28;20065;-55
2022/04/05 09:40:52;;;;;;;24.08;6.88;;;;;;;4.68;50.18;100179.25;5025082;28;20061;-54
2022/04/05 09:43:32;;;;;;;15.63;5.17;;;;;;;4.67;49.96;100185.31;5025546;28;20375;-54
2022/04/05 09:46:05;;;;;;;14.40;5.03;;;;;;;4.64;50.14;100174.94;5025486;28;20324;-54
2022/04/05 09:48:37;;;;;;;19.88;6.78;;;;;;;4.61;50.73;100179.22;5025556;28;20069;-55
2022/04/05 09:51:09;;;;;;;21.52;6.63;;;;;;;4.51;51.36;100184.31;5025492;28;20062;-54
2022/04/05 09:53:50;;;;;;;27.58;8.30;;;;;;;4.44;52.01;100189.44;5025548;28;20054;-55
2022/04/05 09:56:23;;;;;;;27.08;8.63;;;;;;;4.37;52.71;100190.25;5024412;28;20390;-54
2022/04/05 09:58:56;;;;;;;19.42;7.30;;;;;;;4.23;53.81;100183.25;5025495;28;20121;-54
2022/04/05 10:01:29;;;;;;;20.42;8.02;;;;;;;3.98;54.44;100176.16;5025298;28;20406;-56
2022/04/05 10:04:03;;;;;;;26.23;7.25;;;;;;;3.89;55.37;100184.69;5025085;28;20053;-56
2022/04/05 10:06:38;;;;;;;25.52;8.00;;;;;;;3.58;55.48;100149.94;5024632;28;20099;-55
2022/04/05 10:09:09;;;;;;;36.38;8.48;;;;;;;3.72;56.20;100184.53;5025634;28;20057;-56
2022/04/05 10:11:41;;;;;;;26.15;8.45;;;;;;;3.65;56.43;100177.56;5025038;28;20049;-55
2022/04/05 10:14:13;;;;;;;37.78;9.30;;;;;;;3.60;56.74;100168.91;5025018;28;20149;-53
2022/04/05 10:16:49;;;;;;;22.30;8.45;;;;;;;3.36;56.62;100134.19;5024825;28;20096;-55
2022/04/05 10:19:22;;;;;;;26.95;8.52;;;;;;;3.55;56.96;100168.00;5024937;28;20134;-54
2022/04/05 10:21:53;;;;;;;20.55;7.45;;;;;;;3.51;57.00;100161.03;5024671;28;20092;-56
2022/04/05 10:24:24;;;;;;;20.85;7.88;;;;;;;3.54;57.01;100169.69;5024675;28;20297;-54
2022/04/05 10:26:55;;;;;;;20.20;7.18;;;;;;;3.52;57.05;100165.34;5025021;28;20061;-54
2022/04/05 10:29:28;;;;;;;34.17;8.20;;;;;;;2.90;57.33;100076.03;5024682;28;20049;-55
2022/04/05 10:32:06;;;;;;;28.05;7.07;;;;;;;3.35;57.14;100132.47;5025159;28;20116;-55
2022/04/05 10:34:43;;;;;;;20.85;4.78;;;;;;;3.61;56.14;100155.13;4985580;28;20054;-56
2022/04/05 10:37:17;;;;;;;15.50;5.78;;;;;;;3.62;57.03;100146.50;4984889;28;20050;-55
2022/04/05 10:40:17;;;;;;;14.05;4.25;;;;;;;3.74;55.38;100138.88;4985041;28;20058;-56
2022/04/05 10:42:49;;;;;;;17.73;4.72;;;;;;;3.99;54.75;100141.69;4985408;28;20042;-56
2022/04/05 10:45:22;;;;;;;14.05;4.22;;;;;;;4.09;55.10;100143.47;4983004;28;20412;-56
2022/04/05 10:48:13;;;;;;;16.25;3.78;;;;;;;4.09;55.78;100148.66;4984698;28;20069;-57
2022/04/05 10:51:30;;;;;;;14.50;4.25;;;;;;;4.01;55.82;100139.97;4984208;28;20078;-55
2022/04/05 10:54:21;;;;;;;15.13;4.53;;;;;;;3.97;56.46;100133.03;4983164;28;20440;-57
2022/04/05 10:57:26;;;;;;;16.75;4.78;;;;;;;3.94;56.88;100120.94;4984884;28;20296;-56
2022/04/05 10:59:59;;;;;;;17.27;5.88;;;;;;;3.87;57.52;100120.06;4985220;28;20050;-56
2022/04/05 11:02:40;;;;;;;24.90;7.05;;;;;;;3.72;58.43;100108.69;4985187;28;20043;-56
2022/04/05 11:05:43;;;;;;;24.52;7.18;;;;;;;2.98;59.07;100008.16;4984872;28;20380;-56
2022/04/05 11:08:20;;;;;;;29.02;9.00;;;;;;;3.18;60.28;100061.72;4984769;28;20070;-56
2022/04/05 11:10:55;;;;;;;105.15;38.20;;;;;;;3.37;60.35;100104.94;4985090;28;20359;-57
2022/04/05 11:13:35;;;;;;;47.05;18.02;;;;;;;3.35;60.51;100101.47;4983294;28;20055;-55
2022/04/05 11:16:09;;;;;;;38.28;11.18;;;;;;;3.29;61.57;100096.25;4985345;28;20062;-56
2022/04/05 11:18:43;;;;;;;35.42;12.38;;;;;;;3.18;61.95;100084.94;4984457;28;20130;-57
2022/04/05 11:21:16;;;;;;;31.50;7.65;;;;;;;3.01;62.54;100049.47;4985165;28;20054;-57
2022/04/05 11:23:51;;;;;;;26.00;8.27;;;;;;;3.22;62.90;100068.63;4984753;28;20305;-57
2022/04/05 11:26:27;;;;;;;27.05;8.57;;;;;;;3.21;62.88;100067.75;4984554;28;20115;-56
2022/04/05 11:28:59;;;;;;;29.67;9.13;;;;;;;2.92;63.72;100018.44;4985067;28;20047;-57
2022/04/05 11:31:40;;;;;;;28.65;8.45;;;;;;;3.09;63.98;100077.09;4985198;28;20137;-56
2022/04/05 11:34:36;;;;;;;25.75;8.52;;;;;;;3.11;64.21;100065.06;5019845;28;20053;-57
2022/04/05 11:37:09;;;;;;;25.63;7.57;;;;;;;2.83;64.64;100032.94;5024093;28;20372;-57
2022/04/05 11:39:42;;;;;;;26.55;7.30;;;;;;;2.95;64.92;100070.06;5023253;28;20057;-57
2022/04/05 11:42:13;;;;;;;21.60;6.65;;;;;;;2.98;64.97;100067.50;5024100;28;20046;-57
2022/04/05 11:44:51;;;;;;;14.90;4.40;;;;;;;3.06;64.57;100072.75;5024005;28;20173;-56